LJPZ/POW METAR and TAF weather

Enter ICAO airport designator
Station Type Date Time Source
LJPZ METAR 2020/09/19 06:00 UTC NOAA

LJPZ 190600Z 12006KT CAVOK 14/09 Q1020


Station Type Date Time Source
LJPZ Decoded METAR 2020/09/19 06:00 UTC NOAA

Portoroz, Slovenia (LJPZ) 45-31N 013-34E
Sep 19, 2020 - 02:00 AM EDT / 2020.09.19 0600 UTC
Wind: from the ESE (120 degrees) at 7 MPH (6 KT):0
Visibility: greater than 7 mile(s):0
Temperature: 57 F (14 C)
Dew Point: 48 F (9 C)
Relative Humidity: 71%
Pressure (altimeter): 30.12 in. Hg (1020 hPa)
ob: LJPZ 190600Z 12006KT CAVOK 14/09 Q1020
cycle: 6

Station Type Date Time Source
LJPZ TAF 2008/06/02 05:30 UTC NOAA

TAF TAF LJPZ 020530Z 021615 VRB02KT 6000 NSC
BECMG 0911 30005KT 9999 FEW040

Example: see airport list